Time;durP1;ratioP1;P1;durP2;ratioP2;P2;SDS_P1;SDS_P2;PMS_P1;PMS_P2;Temp;Humidity;BMP_temperature;BMP_pressure;BME280_temperature;BME280_humidity;BME280_pressure;Samples;Min_cycle;Max_cycle;Signal;HPM_P1;HPM_P2
2021/06/01 00:01:19;;;;;;;12.30;7.00;;;22.10;51.40;;;;;;6340586;28;20034;-66
2021/06/01 00:04:19;;;;;;;16.02;7.93;;;22.10;51.40;;;;;;6340421;28;20023;-66
2021/06/01 00:07:20;;;;;;;15.13;7.57;;;22.10;51.40;;;;;;6340439;28;20031;-66
2021/06/01 00:10:21;;;;;;;15.55;7.38;;;22.00;51.30;;;;;;6340437;28;20030;-66
2021/06/01 00:13:22;;;;;;;14.60;7.65;;;22.00;51.30;;;;;;6321997;28;20019;-66
2021/06/01 00:16:24;;;;;;;12.43;6.93;;;22.10;51.40;;;;;;6339992;28;20113;-66
2021/06/01 00:19:24;;;;;;;12.05;7.15;;;22.10;51.40;;;;;;6340391;28;20024;-66
2021/06/01 00:22:25;;;;;;;13.00;6.68;;;22.10;52.10;;;;;;6340232;28;20042;-66
2021/06/01 00:25:25;;;;;;;12.93;6.60;;;22.10;51.40;;;;;;6321756;28;20023;-66
2021/06/01 00:28:26;;;;;;;11.68;6.22;;;22.00;51.30;;;;;;6340363;28;20481;-66
2021/06/01 00:31:26;;;;;;;11.50;6.72;;;22.10;51.40;;;;;;6339430;28;20427;-66
2021/06/01 00:34:27;;;;;;;12.00;6.60;;;22.10;51.40;;;;;;6339284;28;20024;-66
2021/06/01 00:37:27;;;;;;;10.82;6.28;;;22.00;51.30;;;;;;6339791;28;20034;-66
2021/06/01 00:40:29;;;;;;;13.40;6.65;;;22.00;51.30;;;;;;6339075;28;20055;-66
2021/06/01 00:43:29;;;;;;;10.77;5.72;;;22.00;51.30;;;;;;6340252;28;20127;-66
2021/06/01 00:46:30;;;;;;;10.73;5.97;;;22.00;51.30;;;;;;6339338;28;20223;-66
2021/06/01 00:49:31;;;;;;;11.43;6.28;;;22.00;52.00;;;;;;6339166;28;20492;-66
2021/06/01 00:52:32;;;;;;;11.52;6.05;;;22.00;51.30;;;;;;6338769;28;20106;-66
2021/06/01 00:55:33;;;;;;;13.63;6.38;;;22.10;51.40;;;;;;6340660;28;20404;-68
2021/06/01 00:58:35;;;;;;;10.82;5.63;;;22.10;51.40;;;;;;6321337;28;20024;-69
2021/06/01 01:01:36;;;;;;;9.50;5.00;;;22.10;51.40;;;;;;6339001;28;20023;-70
2021/06/01 01:04:36;;;;;;;10.70;5.10;;;22.00;51.30;;;;;;6321449;28;20100;-69
2021/06/01 01:07:47;;;;;;;10.13;5.55;;;22.10;51.40;;;;;;6339172;28;20024;-70
2021/06/01 01:10:52;;;;;;;9.40;5.10;;;22.10;51.40;;;;;;6338959;28;20019;-69
2021/06/01 01:14:13;;;;;;;9.98;5.20;;;22.10;51.40;;;;;;6331200;28;20031;-69
2021/06/01 01:17:20;;;;;;;8.32;4.95;;;22.00;51.30;;;;;;6338875;28;20477;-69
2021/06/01 01:20:54;;;;;;;8.93;4.72;;;22.10;51.40;;;;;;6339437;28;20083;-70
2021/06/01 01:24:35;;;;;;;10.10;5.35;;;22.00;51.30;;;;;;6314192;28;20039;-69
2021/06/01 01:27:38;;;;;;;7.30;4.25;;;22.00;51.30;;;;;;6327644;28;20020;-69
2021/06/01 01:30:49;;;;;;;8.27;4.55;;;22.00;51.30;;;;;;6339543;28;20039;-69
2021/06/01 01:33:50;;;;;;;8.38;4.60;;;22.00;51.30;;;;;;6339172;28;20043;-69
2021/06/01 01:36:52;;;;;;;10.38;4.85;;;22.10;51.40;;;;;;6338634;28;20518;-69
2021/06/01 01:39:58;;;;;;;8.68;4.65;;;22.10;51.40;;;;;;6338889;28;20091;-69
2021/06/01 01:43:06;;;;;;;7.90;4.50;;;22.00;51.30;;;;;;6339221;28;20134;-70
2021/06/01 01:46:13;;;;;;;8.18;4.47;;;22.10;51.40;;;;;;6321080;28;20075;-70
2021/06/01 01:49:22;;;;;;;7.50;4.57;;;22.00;51.30;;;;;;6343778;28;20028;-70
2021/06/01 01:52:23;;;;;;;7.40;4.20;;;22.00;51.30;;;;;;6343518;28;20566;-70
2021/06/01 01:55:24;;;;;;;9.32;4.07;;;22.00;51.30;;;;;;6344034;28;20048;-69
2021/06/01 01:58:25;;;;;;;8.43;4.38;;;22.10;51.40;;;;;;6325903;28;20069;-69
2021/06/01 02:01:29;;;;;;;8.50;3.88;;;22.10;51.40;;;;;;6343442;28;20024;-69
2021/06/01 02:04:31;;;;;;;8.32;4.28;;;22.10;51.40;;;;;;6343987;28;20467;-65
2021/06/01 02:07:32;;;;;;;7.13;3.67;;;22.10;51.40;;;;;;6344502;28;20019;-68
2021/06/01 02:10:33;;;;;;;6.55;4.03;;;22.00;51.30;;;;;;6325300;28;20041;-68
2021/06/01 02:13:54;;;;;;;5.88;3.67;;;22.00;51.30;;;;;;6343523;28;20027;-68
2021/06/01 02:16:58;;;;;;;7.57;3.97;;;22.10;51.40;;;;;;6343405;28;20077;-69
2021/06/01 02:19:58;;;;;;;6.05;3.40;;;22.10;51.40;;;;;;6343428;28;20107;-68
2021/06/01 02:27:06;;;;;;;6.65;3.80;;;22.10;51.40;;;;;;6342955;28;20538;-68
2021/06/01 02:30:09;;;;;;;6.00;3.90;;;22.10;51.40;;;;;;6343506;28;20023;-68
2021/06/01 02:33:10;;;;;;;5.82;3.40;;;22.00;51.30;;;;;;6343517;28;20107;-68
2021/06/01 02:36:14;;;;;;;7.90;3.80;;;22.10;51.40;;;;;;6343691;28;20093;-68
2021/06/01 02:39:15;;;;;;;4.95;3.20;;;22.10;51.40;;;;;;6342520;28;20016;-68
2021/06/01 02:42:16;;;;;;;4.30;2.97;;;22.10;51.40;;;;;;6324678;28;20102;-68
2021/06/01 02:45:19;;;;;;;5.95;3.42;;;22.00;51.30;;;;;;6342468;28;20027;-68
2021/06/01 02:48:22;;;;;;;6.28;3.20;;;22.10;51.40;;;;;;6324363;28;20032;-68
2021/06/01 02:51:23;;;;;;;5.75;3.47;;;22.10;51.40;;;;;;6324251;28;20038;-68
2021/06/01 02:54:24;;;;;;;4.95;3.00;;;22.10;51.40;;;;;;6338537;28;20469;-68
2021/06/01 02:57:25;;;;;;;4.97;3.20;;;22.00;51.30;;;;;;6342089;28;20032;-68
2021/06/01 03:00:26;;;;;;;5.38;3.22;;;22.10;51.40;;;;;;6342433;28;20088;-68
2021/06/01 03:03:27;;;;;;;4.70;3.03;;;22.10;51.40;;;;;;6342390;28;20036;-68
2021/06/01 03:06:28;;;;;;;5.97;3.10;;;22.10;51.40;;;;;;6342345;28;20032;-68
2021/06/01 03:09:29;;;;;;;4.30;2.70;;;22.10;51.50;;;;;;6342801;28;20107;-68
2021/06/01 03:15:33;;;;;;;5.45;2.75;;;22.10;51.40;;;;;;6342279;28;20034;-69
2021/06/01 03:18:33;;;;;;;5.03;2.90;;;22.10;51.40;;;;;;6323768;28;20388;-69
2021/06/01 03:21:35;;;;;;;5.68;2.92;;;22.10;51.40;;;;;;6342192;28;20027;-68
2021/06/01 03:24:36;;;;;;;4.38;2.78;;;22.10;51.40;;;;;;6341860;28;20024;-68
2021/06/01 03:27:36;;;;;;;4.47;2.78;;;22.00;51.30;;;;;;6342462;28;20031;-69
2021/06/01 03:30:38;;;;;;;4.38;2.63;;;22.10;51.40;;;;;;6341478;28;20031;-69
2021/06/01 03:33:40;;;;;;;4.40;2.58;;;22.10;51.50;;;;;;6341496;28;20038;-68
2021/06/01 03:36:40;;;;;;;3.92;2.40;;;22.00;51.30;;;;;;6342002;28;20093;-68
2021/06/01 03:39:41;;;;;;;4.85;2.85;;;22.00;51.30;;;;;;6341626;28;20020;-68
2021/06/01 03:42:41;;;;;;;4.72;2.60;;;22.10;51.40;;;;;;6341440;28;20031;-69
2021/06/01 03:45:42;;;;;;;3.65;2.47;;;22.10;51.40;;;;;;6323118;28;20477;-68
2021/06/01 03:48:43;;;;;;;3.67;2.20;;;22.10;51.40;;;;;;6341499;28;20177;-69
2021/06/01 03:51:43;;;;;;;4.78;2.40;;;22.10;51.40;;;;;;6322334;28;20038;-69
2021/06/01 03:54:44;;;;;;;4.82;3.10;;;22.00;51.30;;;;;;6340877;28;20035;-68
2021/06/01 03:57:46;;;;;;;4.22;2.67;;;22.10;51.40;;;;;;6341383;28;20034;-69
2021/06/01 04:00:48;;;;;;;3.72;2.17;;;22.10;51.40;;;;;;6322383;28;20024;-68
2021/06/01 04:03:48;;;;;;;3.50;2.22;;;22.10;51.50;;;;;;6340724;28;20026;-69
2021/06/01 04:06:49;;;;;;;4.50;2.47;;;22.10;51.40;;;;;;6341125;28;20084;-68
2021/06/01 04:09:49;;;;;;;3.45;2.22;;;22.10;51.40;;;;;;6339454;28;20712;-68
2021/06/01 04:12:50;;;;;;;3.42;2.20;;;22.10;51.50;;;;;;6340617;28;20020;-69
2021/06/01 04:15:50;;;;;;;4.03;2.25;;;22.10;51.40;;;;;;6340961;28;20462;-68
2021/06/01 04:18:51;;;;;;;3.78;2.20;;;22.10;51.40;;;;;;6341486;28;20028;-69
2021/06/01 04:21:52;;;;;;;3.03;2.10;;;22.10;51.40;;;;;;6340397;28;20236;-68
2021/06/01 04:24:53;;;;;;;4.22;2.40;;;22.10;51.40;;;;;;6340723;28;20404;-68
2021/06/01 04:27:54;;;;;;;3.40;2.30;;;22.10;51.40;;;;;;6341090;28;20038;-68
2021/06/01 04:30:54;;;;;;;2.72;1.90;;;22.10;51.40;;;;;;6340120;28;20034;-69
2021/06/01 04:33:55;;;;;;;3.75;2.10;;;22.10;51.50;;;;;;6340777;28;20028;-68
2021/06/01 04:36:55;;;;;;;3.17;2.20;;;22.10;51.50;;;;;;6340259;28;20039;-68
2021/06/01 04:39:56;;;;;;;2.83;1.98;;;22.10;51.40;;;;;;6340552;28;20042;-68
2021/06/01 04:42:57;;;;;;;3.38;2.03;;;22.10;51.50;;;;;;6341158;28;20019;-68
2021/06/01 04:45:58;;;;;;;2.55;1.83;;;22.10;51.50;;;;;;6340676;28;20369;-68
2021/06/01 04:48:58;;;;;;;4.32;2.22;;;22.10;51.40;;;;;;6341459;28;20096;-69
2021/06/01 04:51:59;;;;;;;3.47;2.05;;;22.10;51.40;;;;;;6340322;28;20354;-68
2021/06/01 04:54:59;;;;;;;2.83;2.08;;;22.10;51.50;;;;;;6340661;28;20035;-68
2021/06/01 04:58:01;;;;;;;2.97;1.88;;;22.10;51.50;;;;;;6339688;28;20192;-68
2021/06/01 05:01:02;;;;;;;3.22;1.88;;;22.10;52.10;;;;;;6336671;28;20020;-68
2021/06/01 05:04:03;;;;;;;3.40;1.70;;;22.10;51.40;;;;;;6314931;28;20042;-68
2021/06/01 05:07:04;;;;;;;3.15;2.05;;;22.10;51.40;;;;;;6343151;27;20030;-68
2021/06/01 05:10:05;;;;;;;2.83;2.00;;;22.10;51.50;;;;;;6365193;27;20023;-68
2021/06/01 05:13:05;;;;;;;3.70;2.20;;;22.10;51.40;;;;;;6343076;27;20023;-69
2021/06/01 05:16:06;;;;;;;3.42;1.80;;;22.10;51.40;;;;;;6321641;28;20035;-68
2021/06/01 05:19:07;;;;;;;2.90;1.77;;;22.10;51.40;;;;;;6340129;28;20576;-68
2021/06/01 05:22:07;;;;;;;2.92;1.85;;;22.10;51.40;;;;;;6339637;28;20020;-69
2021/06/01 05:25:09;;;;;;;2.72;1.80;;;22.10;51.40;;;;;;6334367;28;20031;-68
2021/06/01 05:28:11;;;;;;;2.75;1.60;;;22.10;51.40;;;;;;6339771;28;20038;-68
2021/06/01 05:31:22;;;;;;;3.75;2.20;;;22.10;51.50;;;;;;6339155;28;20019;-70
2021/06/01 05:34:24;;;;;;;2.65;1.75;;;22.10;51.60;;;;;;6339719;28;20019;-69
2021/06/01 05:37:32;;;;;;;2.38;1.60;;;22.10;51.50;;;;;;6321222;28;20074;-68
2021/06/01 05:40:33;;;;;;;2.38;1.60;;;22.10;51.40;;;;;;6321064;28;20058;-68
2021/06/01 05:43:34;;;;;;;3.03;1.70;;;22.10;51.50;;;;;;6321790;28;20055;-69
2021/06/01 05:46:35;;;;;;;2.85;1.90;;;22.10;51.50;;;;;;6339647;28;20020;-68
2021/06/01 05:49:36;;;;;;;3.03;2.00;;;22.10;51.50;;;;;;6339347;28;20350;-68
2021/06/01 05:52:38;;;;;;;1.80;1.42;;;22.10;51.50;;;;;;6339322;28;20153;-68
2021/06/01 05:55:39;;;;;;;3.58;1.80;;;22.10;51.50;;;;;;6339389;28;20039;-68
2021/06/01 05:58:40;;;;;;;2.17;1.45;;;22.10;51.50;;;;;;6335753;28;20023;-72
2021/06/01 06:01:41;;;;;;;2.03;1.50;;;22.10;51.50;;;;;;6318005;28;20076;-72
2021/06/01 06:04:41;;;;;;;2.67;1.83;;;22.10;51.50;;;;;;6339390;28;20023;-72
2021/06/01 06:07:42;;;;;;;4.43;2.10;;;22.10;51.40;;;;;;6318343;28;20038;-70
2021/06/01 06:10:45;;;;;;;3.13;1.80;;;22.00;51.30;;;;;;6339205;28;20499;-71
2021/06/01 06:13:45;;;;;;;11.80;2.83;;;22.10;51.30;;;;;;6322227;28;20593;-71
2021/06/01 06:16:50;;;;;;;12.65;4.07;;;22.00;51.10;;;;;;6336594;28;20015;-71
2021/06/01 06:19:51;;;;;;;7.35;3.95;;;22.00;51.10;;;;;;6318838;28;20020;-70
2021/06/01 06:22:52;;;;;;;8.30;3.85;;;22.10;50.60;;;;;;6332576;28;20381;-71
2021/06/01 06:25:52;;;;;;;10.63;4.60;;;22.00;50.60;;;;;;6300127;28;20096;-71
2021/06/01 06:28:53;;;;;;;9.48;4.03;;;22.00;50.50;;;;;;6339029;28;20035;-68
2021/06/01 06:31:53;;;;;;;12.25;5.28;;;22.10;50.30;;;;;;6353450;28;20032;-68
2021/06/01 06:34:54;;;;;;;8.98;4.20;;;22.10;50.70;;;;;;6335594;27;20015;-68
2021/06/01 06:37:55;;;;;;;13.38;4.88;;;22.00;50.60;;;;;;6325986;28;20547;-69
2021/06/01 06:43:59;;;;;;;11.05;3.97;;;22.00;50.70;;;;;;6344997;27;20447;-69
2021/06/01 06:47:18;;;;;;;14.50;4.43;;;22.00;50.30;;;;;;6328182;28;20020;-68
2021/06/01 06:50:21;;;;;;;7.63;4.07;;;22.10;50.20;;;;;;6321543;28;20418;-68
2021/06/01 06:53:22;;;;;;;11.25;4.85;;;22.00;50.60;;;;;;6326107;28;20026;-66
2021/06/01 06:56:26;;;;;;;12.05;4.35;;;22.00;50.60;;;;;;6344206;28;20067;-70
2021/06/01 06:59:27;;;;;;;8.80;4.10;;;22.00;50.50;;;;;;6325188;28;20015;-70
2021/06/01 07:02:30;;;;;;;7.47;4.05;;;22.00;50.70;;;;;;6335137;28;20043;-70
2021/06/01 07:05:31;;;;;;;15.50;4.35;;;22.00;50.70;;;;;;6338709;28;20032;-65
2021/06/01 07:08:31;;;;;;;8.77;3.75;;;22.00;50.80;;;;;;6339427;27;20028;-65
2021/06/01 07:11:32;;;;;;;8.77;3.70;;;22.10;51.00;;;;;;6344308;28;20055;-65
2021/06/01 07:15:10;;;;;;;5.57;3.33;;;22.00;50.90;;;;;;6340267;28;20107;-65
2021/06/01 07:18:11;;;;;;;6.25;3.40;;;22.10;51.00;;;;;;6345040;28;20031;-65
2021/06/01 07:21:14;;;;;;;6.20;3.53;;;22.10;51.10;;;;;;6343468;28;20439;-65
2021/06/01 07:24:15;;;;;;;9.40;3.42;;;22.10;51.10;;;;;;6343629;28;20055;-65
2021/06/01 07:27:15;;;;;;;7.15;3.55;;;22.00;51.10;;;;;;6343614;28;20505;-65
2021/06/01 07:30:18;;;;;;;5.25;3.20;;;22.00;51.10;;;;;;6342913;28;20561;-65
2021/06/01 07:33:19;;;;;;;6.63;3.22;;;22.10;51.20;;;;;;6343654;28;20022;-65
2021/06/01 07:36:19;;;;;;;6.78;3.30;;;22.00;51.20;;;;;;6318131;28;20385;-64
2021/06/01 07:39:20;;;;;;;9.20;3.17;;;22.10;51.20;;;;;;6341778;28;20051;-65
2021/06/01 07:42:20;;;;;;;6.55;2.83;;;22.10;51.20;;;;;;6342793;28;20023;-65
2021/06/01 07:45:23;;;;;;;4.80;2.78;;;22.00;51.20;;;;;;6323112;28;20031;-65
2021/06/01 07:48:25;;;;;;;7.10;3.40;;;22.00;51.20;;;;;;6342173;28;20023;-65
2021/06/01 07:51:30;;;;;;;6.88;3.60;;;22.00;51.20;;;;;;6341938;28;20110;-65
2021/06/01 07:54:32;;;;;;;4.45;2.85;;;22.10;51.30;;;;;;6324780;28;20052;-65
2021/06/01 07:57:33;;;;;;;7.03;2.58;;;22.00;51.20;;;;;;6341490;28;20027;-65
2021/06/01 08:00:34;;;;;;;6.10;2.92;;;22.10;51.30;;;;;;6328774;28;20157;-65
2021/06/01 08:03:34;;;;;;;4.75;2.58;;;22.10;51.40;;;;;;6336579;28;20023;-65
2021/06/01 08:06:37;;;;;;;4.07;2.70;;;22.10;51.40;;;;;;6341952;28;20066;-66
2021/06/01 08:09:38;;;;;;;4.85;3.00;;;22.10;51.40;;;;;;6323254;28;20027;-65
2021/06/01 08:12:38;;;;;;;4.35;2.50;;;22.10;51.40;;;;;;6335699;27;20038;-64
2021/06/01 08:15:43;;;;;;;5.25;2.50;;;22.10;51.40;;;;;;6325616;28;20617;-65
2021/06/01 08:18:50;;;;;;;6.05;3.20;;;22.10;51.40;;;;;;6323095;28;20089;-65
2021/06/01 08:21:57;;;;;;;5.60;2.60;;;22.10;51.40;;;;;;6341670;28;20031;-65
2021/06/01 08:24:57;;;;;;;4.18;2.60;;;22.10;51.50;;;;;;6342521;28;20038;-65
2021/06/01 08:27:59;;;;;;;5.95;2.50;;;22.10;51.40;;;;;;6323979;28;20476;-65
2021/06/01 08:31:02;;;;;;;8.43;2.72;;;22.10;51.40;;;;;;6340440;28;20020;-65
2021/06/01 08:34:03;;;;;;;4.22;2.83;;;22.10;51.50;;;;;;6341578;28;20046;-65
2021/06/01 08:37:04;;;;;;;4.53;2.65;;;22.00;51.40;;;;;;6323663;28;20020;-65
2021/06/01 08:40:06;;;;;;;2.70;1.98;;;22.10;51.50;;;;;;6334260;28;20031;-65
2021/06/01 08:43:22;;;;;;;4.53;2.38;;;22.10;51.50;;;;;;6324426;28;20027;-65
2021/06/01 08:46:34;;;;;;;2.60;2.30;;;22.10;51.50;;;;;;6343155;28;20461;-65
2021/06/01 08:49:41;;;;;;;3.53;2.30;;;22.10;51.60;;;;;;6324325;28;20031;-65
2021/06/01 08:52:42;;;;;;;3.00;2.20;;;22.10;51.60;;;;;;6314944;28;20026;-66
2021/06/01 08:55:45;;;;;;;5.68;2.25;;;22.00;51.50;;;;;;6337376;28;20047;-65
2021/06/01 08:58:50;;;;;;;3.10;2.20;;;22.10;52.30;;;;;;6323789;28;20020;-65
2021/06/01 09:01:51;;;;;;;5.07;2.40;;;22.00;51.60;;;;;;6336535;28;20023;-65
2021/06/01 09:04:57;;;;;;;4.13;2.20;;;22.10;51.70;;;;;;6339026;28;20106;-65
2021/06/01 09:08:08;;;;;;;4.07;2.13;;;22.10;51.70;;;;;;6341018;27;20023;-65
2021/06/01 09:11:17;;;;;;;4.63;2.50;;;22.10;51.70;;;;;;6330295;28;20028;-65
2021/06/01 09:21:15;;;;;;;3.05;1.83;;;22.10;52.50;;;;;;6340511;28;20106;-65
2021/06/01 09:24:16;;;;;;;3.58;2.10;;;22.20;49.90;;;;;;6341253;28;20016;-65
2021/06/01 09:27:25;;;;;;;3.10;1.83;;;22.20;49.30;;;;;;6341061;28;20089;-65
2021/06/01 09:30:54;;;;;;;3.15;1.85;;;22.20;48.90;;;;;;6322649;28;20016;-65
2021/06/01 09:33:55;;;;;;;4.20;1.90;;;22.30;48.40;;;;;;6326275;28;20426;-66
2021/06/01 09:37:15;;;;;;;1.60;1.40;;;22.30;48.00;;;;;;6341198;28;20027;-65
2021/06/01 09:40:20;;;;;;;7.40;1.90;;;22.40;48.00;;;;;;6340028;28;20077;-64
2021/06/01 09:43:20;;;;;;;3.25;1.83;;;22.40;47.90;;;;;;6340496;28;20069;-64
2021/06/01 09:46:33;;;;;;;5.43;1.70;;;22.50;47.80;;;;;;6340458;28;20103;-65
2021/06/01 09:49:33;;;;;;;4.32;1.85;;;22.50;47.70;;;;;;6354131;28;20336;-65
2021/06/01 09:52:45;;;;;;;2.45;1.40;;;22.50;47.60;;;;;;6317338;28;20027;-65
2021/06/01 09:55:47;;;;;;;2.28;1.58;;;22.50;47.60;;;;;;6337309;28;20070;-65
2021/06/01 09:58:48;;;;;;;3.95;1.45;;;22.50;47.50;;;;;;6341556;28;20028;-65
2021/06/01 10:01:49;;;;;;;3.78;1.67;;;22.60;47.50;;;;;;6340729;28;20555;-64
2021/06/01 10:05:12;;;;;;;2.00;1.58;;;22.60;47.40;;;;;;6341502;28;20012;-64
2021/06/01 10:08:16;;;;;;;2.35;1.42;;;22.60;47.30;;;;;;6341774;28;20405;-65
2021/06/01 10:11:17;;;;;;;1.45;1.30;;;22.60;47.30;;;;;;6345958;28;20030;-64
2021/06/01 10:14:18;;;;;;;1.67;1.30;;;22.60;47.30;;;;;;6326654;28;20028;-65
2021/06/01 10:17:19;;;;;;;3.08;1.50;;;22.60;47.30;;;;;;6345433;28;20107;-65
2021/06/01 10:20:22;;;;;;;2.83;1.35;;;22.60;47.20;;;;;;6345928;28;20011;-65
2021/06/01 10:23:28;;;;;;;1.63;1.15;;;22.60;47.10;;;;;;6345640;27;20077;-64
2021/06/01 10:26:29;;;;;;;2.75;1.55;;;22.60;47.10;;;;;;6345823;28;20322;-65
2021/06/01 10:29:29;;;;;;;3.67;1.30;;;22.60;47.00;;;;;;6343546;28;20034;-64
2021/06/01 10:32:31;;;;;;;2.05;1.27;;;22.60;46.90;;;;;;6345638;27;20085;-65
2021/06/01 10:35:35;;;;;;;2.80;1.35;;;22.60;46.80;;;;;;6345746;28;20073;-64
2021/06/01 10:50:05;;;;;;;4.60;1.48;;;22.70;46.50;;;;;;6371698;27;20429;-64
2021/06/01 10:52:11;;;;;;;1.92;1.40;;;22.70;46.50;;;;;;6353783;27;20492;-64
2021/06/01 10:55:12;;;;;;;2.67;1.35;;;22.70;46.30;;;;;;6330732;28;20044;-64
2021/06/01 10:58:12;;;;;;;1.65;1.25;;;22.70;46.20;;;;;;6320234;28;20534;-65
2021/06/01 11:04:32;;;;;;;1.42;1.10;;;22.80;46.20;;;;;;6311928;28;20028;-64
2021/06/01 11:07:54;;;;;;;1.60;1.00;;;22.80;46.10;;;;;;6315540;28;20423;-65
2021/06/01 11:10:54;;;;;;;1.45;1.17;;;22.80;46.00;;;;;;6291653;28;20456;-64
2021/06/01 11:13:56;;;;;;;2.45;1.42;;;22.80;46.00;;;;;;6312158;28;20028;-65
2021/06/01 11:17:00;;;;;;;1.83;1.25;;;22.80;46.00;;;;;;6320060;28;20028;-68
2021/06/01 11:20:19;;;;;;;1.17;0.95;;;22.80;45.90;;;;;;6319777;28;20066;-67
2021/06/01 11:23:45;;;;;;;1.85;1.10;;;22.80;45.90;;;;;;6320761;28;20099;-68
2021/06/01 11:33:33;;;;;;;2.83;1.50;;;22.80;45.70;;;;;;6314726;28;20025;-68
2021/06/01 11:36:39;;;;;;;1.20;1.00;;;22.80;45.70;;;;;;6320315;28;20523;-69
2021/06/01 11:43:16;;;;;;;1.20;1.10;;;22.90;45.80;;;;;;6303536;28;20063;-69
2021/06/01 11:52:39;;;;;;;2.00;1.30;;;22.90;45.70;;;;;;6313758;28;20028;-68
2021/06/01 11:55:44;;;;;;;1.45;1.00;;;22.90;45.60;;;;;;6337749;28;20047;-68
2021/06/01 12:12:23;;;;;;;1.65;1.10;;;22.90;45.40;;;;;;6345181;28;20110;-68
2021/06/01 12:18:41;;;;;;;1.40;1.05;;;22.90;45.40;;;;;;6345004;28;20027;-68
2021/06/01 12:21:46;;;;;;;1.50;1.27;;;22.90;45.40;;;;;;6343720;28;20130;-68
2021/06/01 12:24:46;;;;;;;;;;;22.90;45.30;;;;;;6327157;28;20330;-68
2021/06/01 12:30:54;;;;;;;1.42;1.10;;;22.90;45.30;;;;;;6325837;28;19946;-68
2021/06/01 12:31:17;;;;;;;1.35;0.95;;;22.90;45.30;;;;;;6340033;28;20036;-68
2021/06/01 12:34:25;;;;;;;1.10;0.90;;;22.90;45.20;;;;;;6339492;28;20062;-69
2021/06/01 12:44:12;;;;;;;1.13;1.00;;;23.00;45.20;;;;;;6342213;28;20054;-69
2021/06/01 12:47:44;;;;;;;1.55;1.08;;;22.90;45.10;;;;;;6324629;28;20055;-69
2021/06/01 13:08:29;;;;;;;1.45;1.05;;;23.00;44.90;;;;;;6335428;28;20035;-68
2021/06/01 13:21:12;;;;;;;2.05;1.00;;;23.00;44.70;;;;;;6341019;28;20027;-65
2021/06/01 13:30:16;;;;;;;3.72;1.27;;;23.00;44.60;;;;;;6336545;28;20061;-65
2021/06/01 13:47:53;;;;;;;2.67;1.20;;;22.90;44.30;;;;;;6342142;28;20430;-65
2021/06/01 14:00:49;;;;;;;1.63;1.20;;;23.00;43.90;;;;;;6315035;28;20145;-65
2021/06/01 14:10:57;;;;;;;2.67;1.20;;;22.90;43.30;;;;;;6317350;28;20024;-66
2021/06/01 14:30:52;;;;;;;3.08;1.10;;;22.90;42.90;;;;;;6314156;28;20544;-66
2021/06/01 15:49:56;;;;;;;3.45;1.20;;;22.50;44.60;;;;;;6337545;28;20146;-68
2021/06/01 15:53:31;;;;;;;1.10;1.00;;;22.50;44.80;;;;;;6340839;28;20024;-68
2021/06/01 16:13:47;;;;;;;7.30;1.30;;;22.60;44.80;;;;;;6342953;28;20031;-69
2021/06/01 16:23:34;;;;;;;2.05;1.30;;;22.60;45.30;;;;;;6341463;28;20020;-69
2021/06/01 16:30:07;;;;;;;2.25;1.20;;;22.60;45.70;;;;;;6340802;28;20032;-69
2021/06/01 16:33:43;;;;;;;2.13;1.15;;;22.50;45.70;;;;;;6316802;28;20024;-69
2021/06/01 16:43:34;;;;;;;1.35;1.00;;;22.50;46.10;;;;;;6340158;28;20320;-69
2021/06/01 17:03:22;;;;;;;1.95;1.25;;;22.50;46.90;;;;;;6335767;28;20482;-69
2021/06/01 17:06:31;;;;;;;1.10;1.00;;;22.50;46.90;;;;;;6342399;28;20324;-69
2021/06/01 17:13:08;;;;;;;1.73;1.23;;;22.40;47.00;;;;;;6329360;28;20031;-69
2021/06/01 17:16:15;;;;;;;2.60;1.17;;;22.40;47.10;;;;;;6334407;28;20094;-70
2021/06/01 17:22:47;;;;;;;1.00;0.80;;;22.40;47.00;;;;;;6335529;28;20024;-69
2021/06/01 17:35:24;;;;;;;2.15;1.10;;;22.50;47.50;;;;;;6337036;27;20043;-68
2021/06/01 17:38:26;;;;;;;5.05;1.10;;;22.50;47.50;;;;;;6340444;28;20019;-69
2021/06/01 17:41:32;;;;;;;9.50;1.50;;;22.50;47.50;;;;;;6339154;28;20062;-69
2021/06/01 17:44:33;;;;;;;4.05;1.10;;;22.50;47.60;;;;;;6339556;28;20530;-69
2021/06/01 17:47:42;;;;;;;5.47;1.38;;;22.50;47.60;;;;;;6339079;28;20032;-68
2021/06/01 17:50:43;;;;;;;11.15;1.10;;;22.50;47.60;;;;;;6338837;28;20019;-68
2021/06/01 17:53:49;;;;;;;8.05;1.35;;;22.50;47.70;;;;;;6339326;28;20031;-68
2021/06/01 17:56:50;;;;;;;2.67;1.08;;;22.50;47.70;;;;;;6321282;28;20225;-69
2021/06/01 17:59:51;;;;;;;6.72;1.08;;;22.50;47.70;;;;;;6319457;28;20389;-68
2021/06/01 18:02:52;;;;;;;7.18;1.00;;;22.50;47.70;;;;;;6337800;28;20099;-69
2021/06/01 18:05:54;;;;;;;3.60;1.15;;;22.50;47.80;;;;;;6308504;28;20063;-68
2021/06/01 18:09:03;;;;;;;3.05;1.05;;;22.50;47.80;;;;;;6317612;28;20344;-69
2021/06/01 18:34:49;;;;;;;2.33;0.90;;;22.50;48.00;;;;;;6329572;28;20047;-68
2021/06/01 19:06:53;;;;;;;2.75;0.90;;;22.50;48.40;;;;;;6341136;27;20028;-68
2021/06/01 19:52:54;;;;;;;3.05;1.02;;;22.50;48.70;;;;;;6343546;28;20016;-65
2021/06/01 19:55:55;;;;;;;3.78;1.33;;;22.50;48.70;;;;;;6342381;28;20035;-65
2021/06/01 19:58:55;;;;;;;2.55;0.90;;;22.50;48.70;;;;;;6342424;28;20045;-65
2021/06/01 20:01:56;;;;;;;1.92;0.98;;;22.50;48.70;;;;;;6341980;28;20024;-65
2021/06/01 20:04:59;;;;;;;3.05;1.20;;;22.50;48.70;;;;;;6341675;28;20458;-65
2021/06/01 20:08:01;;;;;;;2.13;0.93;;;22.50;48.70;;;;;;6341842;28;20109;-65
2021/06/01 20:11:02;;;;;;;2.55;0.90;;;22.50;48.70;;;;;;6341619;28;20073;-65
2021/06/01 20:14:03;;;;;;;1.15;0.82;;;22.50;48.80;;;;;;6323424;28;20047;-65
2021/06/01 20:17:10;;;;;;;0.93;0.82;;;22.50;48.80;;;;;;6341581;28;20253;-65
2021/06/01 20:20:19;;;;;;;1.40;0.70;;;22.50;48.80;;;;;;6339358;28;20024;-65
2021/06/01 20:23:20;;;;;;;1.17;0.90;;;22.50;49.50;;;;;;6336726;28;20064;-65
2021/06/01 20:26:23;;;;;;;1.52;1.00;;;22.50;48.80;;;;;;6333438;28;20220;-65
2021/06/01 20:29:30;;;;;;;1.33;0.80;;;22.50;48.80;;;;;;6341483;28;20476;-65
2021/06/01 20:35:52;;;;;;;2.03;1.08;;;22.50;48.90;;;;;;6340893;28;20472;-65
2021/06/01 20:38:54;;;;;;;1.25;0.90;;;22.50;48.80;;;;;;6341089;28;20035;-65
2021/06/01 20:41:55;;;;;;;1.30;1.00;;;22.50;48.90;;;;;;6340491;28;20028;-65
2021/06/01 20:44:56;;;;;;;5.03;0.85;;;22.50;48.90;;;;;;6340950;28;20154;-65
2021/06/01 20:48:06;;;;;;;1.67;0.90;;;22.50;48.90;;;;;;6341265;28;20032;-65
2021/06/01 20:51:06;;;;;;;2.13;0.93;;;22.50;48.90;;;;;;6340271;28;20243;-65
2021/06/01 20:54:07;;;;;;;2.10;0.98;;;22.50;48.90;;;;;;6341114;28;20040;-65
2021/06/01 20:57:08;;;;;;;2.45;0.90;;;22.50;49.00;;;;;;6340457;28;20024;-65
2021/06/01 21:00:10;;;;;;;2.63;0.90;;;22.50;48.90;;;;;;6322325;28;20069;-65
2021/06/01 21:03:11;;;;;;;1.83;0.98;;;22.50;49.00;;;;;;6340483;28;20012;-65
2021/06/01 21:06:12;;;;;;;4.05;1.20;;;22.50;49.00;;;;;;6348629;27;20023;-65
2021/06/01 21:09:13;;;;;;;1.65;0.82;;;22.50;49.00;;;;;;6340522;28;20126;-65
2021/06/01 21:12:14;;;;;;;2.50;0.95;;;22.50;49.00;;;;;;6340620;28;20086;-65
2021/06/01 21:15:16;;;;;;;0.95;0.80;;;22.50;49.00;;;;;;6340375;28;20047;-66
2021/06/01 21:18:20;;;;;;;2.17;1.10;;;22.50;49.00;;;;;;6321645;28;20263;-65
2021/06/01 21:21:21;;;;;;;0.80;0.80;;;22.50;49.00;;;;;;6333939;28;20019;-65
2021/06/01 21:24:22;;;;;;;0.85;0.80;;;22.50;49.00;;;;;;6340256;28;20019;-65
2021/06/01 21:27:22;;;;;;;1.35;1.00;;;22.50;49.00;;;;;;6334478;28;20431;-65
2021/06/01 21:30:24;;;;;;;1.50;0.82;;;22.50;49.00;;;;;;6334779;28;20028;-65
2021/06/01 21:33:39;;;;;;;0.85;0.80;;;22.50;49.10;;;;;;6340627;28;20020;-65
2021/06/01 21:36:43;;;;;;;1.13;0.85;;;22.50;49.00;;;;;;6340039;28;20030;-65
2021/06/01 21:39:45;;;;;;;1.10;0.73;;;22.50;49.10;;;;;;6333178;28;20035;-65
2021/06/01 21:42:47;;;;;;;1.45;0.90;;;22.50;49.10;;;;;;6338906;28;20107;-65
2021/06/01 21:45:49;;;;;;;1.60;0.90;;;22.50;49.10;;;;;;6340035;28;20462;-66
2021/06/01 21:48:51;;;;;;;2.80;0.85;;;22.50;49.10;;;;;;6340095;28;20027;-65
2021/06/01 21:51:55;;;;;;;0.73;0.70;;;22.50;49.10;;;;;;6340250;28;20043;-65
2021/06/01 21:54:58;;;;;;;0.85;0.80;;;22.50;49.80;;;;;;6339931;28;20090;-65
2021/06/01 21:57:59;;;;;;;1.38;0.80;;;22.50;49.10;;;;;;6321516;28;20032;-66
2021/06/01 22:01:01;;;;;;;1.38;0.80;;;22.50;49.10;;;;;;6321517;28;20019;-65
2021/06/01 22:04:02;;;;;;;0.63;0.57;;;22.50;49.20;;;;;;6323856;28;20015;-65
2021/06/01 22:07:05;;;;;;;0.90;0.80;;;22.50;49.10;;;;;;6344633;28;20168;-65
2021/06/01 22:10:08;;;;;;;1.02;0.80;;;22.50;49.10;;;;;;6345126;28;20038;-65
2021/06/01 22:13:08;;;;;;;0.68;0.65;;;22.50;49.20;;;;;;6337763;28;20024;-65
2021/06/01 22:16:10;;;;;;;0.88;0.80;;;22.50;49.20;;;;;;6326207;28;20062;-65
2021/06/01 22:19:10;;;;;;;1.23;0.90;;;22.50;49.80;;;;;;6344792;28;20027;-65
2021/06/01 22:22:12;;;;;;;2.15;0.82;;;22.50;49.20;;;;;;6320081;28;20016;-65
2021/06/01 22:25:13;;;;;;;0.90;0.77;;;22.50;49.20;;;;;;6344303;28;20020;-65
2021/06/01 22:28:15;;;;;;;0.57;0.52;;;22.50;49.20;;;;;;6344197;28;20435;-65